Time;durP1;ratioP1;P1;durP2;ratioP2;P2;SDS_P1;SDS_P2;PMS_P1;PMS_P2;Temp;Humidity;BMP_temperature;BMP_pressure;BME280_temperature;BME280_humidity;BME280_pressure;Samples;Min_cycle;Max_cycle;Signal;HPM_P1;HPM_P2
2023/02/01 00:01:47;;;;;;;14.45;3.67;;;5.40;99.90;;;;;;5053532;28;20417;-66
2023/02/01 00:04:14;;;;;;;11.90;3.65;;;5.40;99.90;;;;;;5053242;28;20417;-67
2023/02/01 00:06:41;;;;;;;13.68;3.65;;;5.40;99.90;;;;;;5053716;28;20746;-66
2023/02/01 00:09:07;;;;;;;18.37;4.27;;;5.40;99.90;;;;;;5053274;28;20421;-64
2023/02/01 00:11:34;;;;;;;14.25;3.70;;;5.40;99.90;;;;;;5053467;28;20436;-66
2023/02/01 00:14:03;;;;;;;16.23;4.00;;;5.40;99.90;;;;;;5054931;28;20421;-65
2023/02/01 00:16:32;;;;;;;15.07;3.00;;;5.40;99.90;;;;;;5053530;28;20429;-65
2023/02/01 00:19:01;;;;;;;13.57;3.15;;;5.40;99.90;;;;;;5055663;28;20901;-66
2023/02/01 00:21:28;;;;;;;15.05;3.67;;;5.40;99.90;;;;;;5055232;28;20417;-66
2023/02/01 00:23:55;;;;;;;14.18;3.45;;;5.30;99.90;;;;;;5052712;28;20424;-66
2023/02/01 00:26:31;;;;;;;14.63;3.67;;;5.30;99.90;;;;;;5054131;28;20409;-66
2023/02/01 00:28:57;;;;;;;14.88;3.15;;;5.30;99.90;;;;;;5057242;28;20413;-66
2023/02/01 00:31:25;;;;;;;13.27;3.35;;;5.30;99.90;;;;;;5057994;28;20419;-65
2023/02/01 00:33:52;;;;;;;16.58;3.70;;;5.40;99.90;;;;;;5057755;28;20417;-66
2023/02/01 00:36:19;;;;;;;19.30;4.15;;;5.30;99.90;;;;;;5057990;28;20432;-66
2023/02/01 00:38:46;;;;;;;17.23;3.88;;;5.30;99.90;;;;;;5061991;28;20408;-66
2023/02/01 00:41:15;;;;;;;17.20;4.00;;;5.30;99.90;;;;;;5063382;28;20419;-66
2023/02/01 00:43:42;;;;;;;17.25;3.70;;;5.30;99.90;;;;;;5061979;28;20420;-65
2023/02/01 00:46:10;;;;;;;9.00;2.90;;;5.30;99.90;;;;;;5057840;28;20428;-66
2023/02/01 00:48:38;;;;;;;17.45;3.55;;;5.30;99.90;;;;;;5058553;28;20420;-65
2023/02/01 00:51:08;;;;;;;12.82;3.67;;;5.30;99.90;;;;;;5057928;28;20409;-65
2023/02/01 00:53:35;;;;;;;13.23;3.30;;;5.30;99.90;;;;;;5060138;28;20424;-66
2023/02/01 00:56:03;;;;;;;12.77;3.58;;;5.30;99.90;;;;;;5059288;28;20516;-65
2023/02/01 00:58:30;;;;;;;16.50;3.90;;;5.30;99.90;;;;;;5060249;28;20449;-66
2023/02/01 01:01:04;;;;;;;16.63;3.25;;;5.30;99.90;;;;;;5060130;28;20425;-65
2023/02/01 01:03:33;;;;;;;15.48;4.22;;;5.30;99.90;;;;;;5061043;28;20788;-67
2023/02/01 01:06:03;;;;;;;13.48;3.38;;;5.20;99.90;;;;;;5061249;28;20409;-66
2023/02/01 01:08:30;;;;;;;17.10;3.92;;;5.20;99.90;;;;;;5061361;28;20431;-66
2023/02/01 01:10:57;;;;;;;13.93;3.60;;;5.20;99.90;;;;;;5061263;28;20425;-66
2023/02/01 01:13:24;;;;;;;12.90;3.28;;;5.10;99.90;;;;;;5061092;28;20413;-66
2023/02/01 01:15:51;;;;;;;11.88;3.35;;;5.20;99.90;;;;;;5060532;28;20448;-65
2023/02/01 01:18:18;;;;;;;18.77;3.80;;;5.20;99.90;;;;;;5060626;28;20413;-66
2023/02/01 01:20:44;;;;;;;16.55;4.88;;;5.20;99.90;;;;;;5063333;28;20420;-65
2023/02/01 01:23:12;;;;;;;14.98;3.70;;;5.20;99.90;;;;;;5061932;28;20755;-67
2023/02/01 01:25:40;;;;;;;14.75;3.75;;;5.20;99.90;;;;;;5061701;28;20877;-66
2023/02/01 01:28:07;;;;;;;13.40;3.70;;;5.20;99.90;;;;;;5062378;28;20417;-66
2023/02/01 01:30:34;;;;;;;16.55;3.50;;;5.20;99.90;;;;;;5062771;28;20423;-65
2023/02/01 01:33:01;;;;;;;16.38;3.80;;;5.30;99.90;;;;;;5060408;28;20417;-66
2023/02/01 01:35:30;;;;;;;12.35;3.28;;;5.30;99.90;;;;;;5060523;28;20797;-65
2023/02/01 01:37:57;;;;;;;12.18;3.63;;;5.30;99.90;;;;;;5059139;28;20913;-65
2023/02/01 01:40:26;;;;;;;16.55;3.88;;;5.30;99.90;;;;;;5059949;28;20440;-67
2023/02/01 01:42:54;;;;;;;16.08;4.00;;;5.30;99.90;;;;;;5060049;28;20912;-66
2023/02/01 01:45:24;;;;;;;12.00;3.30;;;5.30;99.90;;;;;;5058835;28;20417;-66
2023/02/01 01:47:55;;;;;;;17.10;3.25;;;5.30;99.90;;;;;;5061870;28;20425;-67
2023/02/01 01:50:25;;;;;;;16.00;3.85;;;5.30;99.90;;;;;;5058572;28;20501;-65
2023/02/01 01:52:55;;;;;;;15.60;3.92;;;5.30;99.90;;;;;;5058341;28;20412;-66
2023/02/01 01:55:26;;;;;;;15.32;3.85;;;5.30;99.90;;;;;;5059405;28;20904;-65
2023/02/01 01:57:56;;;;;;;12.65;3.70;;;5.30;99.90;;;;;;5058518;28;20515;-66
2023/02/01 02:00:24;;;;;;;14.02;3.50;;;5.30;99.90;;;;;;5059344;28;20892;-66
2023/02/01 02:02:57;;;;;;;14.27;3.80;;;5.30;99.90;;;;;;5060768;28;20410;-65
2023/02/01 02:05:24;;;;;;;11.80;3.30;;;5.30;99.90;;;;;;5060289;28;20499;-65
2023/02/01 02:07:54;;;;;;;14.00;3.53;;;5.30;99.90;;;;;;5060318;28;20422;-65
2023/02/01 02:10:59;;;;;;;13.10;3.60;;;5.30;99.90;;;;;;5060633;28;20414;-66
2023/02/01 02:13:10;;;;;;;14.63;3.67;;;5.20;99.90;;;;;;5060792;28;20405;-66
2023/02/01 02:15:42;;;;;;;13.45;3.88;;;5.30;99.90;;;;;;5059577;28;20412;-65
2023/02/01 02:18:16;;;;;;;11.70;3.47;;;5.30;99.90;;;;;;5058859;28;20405;-66
2023/02/01 02:21:00;;;;;;;14.77;3.65;;;5.30;99.90;;;;;;5059674;28;20424;-64
2023/02/01 02:24:06;;;;;;;11.73;3.47;;;5.30;99.90;;;;;;5059815;28;20420;-66
2023/02/01 02:27:04;;;;;;;13.05;3.40;;;5.30;99.90;;;;;;5059204;28;20405;-66
2023/02/01 02:30:10;;;;;;;11.90;3.40;;;5.30;99.90;;;;;;5061173;28;20420;-66
2023/02/01 02:32:58;;;;;;;12.25;3.22;;;5.40;99.90;;;;;;5055221;28;20471;-66
2023/02/01 02:35:33;;;;;;;11.95;3.25;;;5.40;99.90;;;;;;5060530;28;20429;-65
2023/02/01 02:38:12;;;;;;;13.43;3.50;;;5.40;99.90;;;;;;5063452;28;20429;-66
2023/02/01 02:40:50;;;;;;;10.15;3.50;;;5.40;99.90;;;;;;5057865;28;20417;-66
2023/02/01 02:49:05;;;;;;;15.55;3.65;;;5.40;99.90;;;;;;5056740;28;20761;-65
2023/02/01 03:05:33;;;;;;;11.70;4.13;;;5.50;99.90;;;;;;5059105;28;20393;-66
2023/02/01 03:08:10;;;;;;;15.85;4.18;;;5.50;99.90;;;;;;5059733;28;20876;-66
2023/02/01 03:10:44;;;;;;;13.55;3.72;;;5.50;99.90;;;;;;5057377;28;20419;-66
2023/02/01 03:13:16;;;;;;;11.57;3.80;;;5.50;99.90;;;;;;5061445;28;20499;-65
2023/02/01 03:15:48;;;;;;;12.32;3.30;;;5.50;99.90;;;;;;5065439;28;20496;-64
2023/02/01 03:18:21;;;;;;;15.20;4.20;;;5.50;99.90;;;;;;5065841;28;20477;-65
2023/02/01 03:20:50;;;;;;;12.05;3.60;;;5.50;99.90;;;;;;5067987;28;20415;-65
2023/02/01 03:23:22;;;;;;;15.50;3.97;;;5.50;99.90;;;;;;5068288;28;20409;-65
2023/02/01 03:25:52;;;;;;;14.98;3.67;;;5.50;99.90;;;;;;5066345;28;20597;-66
2023/02/01 03:28:21;;;;;;;12.80;3.60;;;5.50;99.90;;;;;;5064702;28;20440;-66
2023/02/01 03:30:49;;;;;;;14.73;3.70;;;5.50;99.90;;;;;;5061510;28;20421;-66
2023/02/01 03:33:22;;;;;;;13.23;3.20;;;5.50;99.90;;;;;;5063990;28;20903;-65
2023/02/01 03:35:55;;;;;;;14.75;4.13;;;5.50;99.90;;;;;;5064141;28;20417;-66
2023/02/01 03:38:27;;;;;;;11.83;3.23;;;5.50;99.90;;;;;;5067169;28;20397;-65
2023/02/01 03:40:59;;;;;;;15.57;3.47;;;5.50;99.90;;;;;;5067190;28;20508;-65
2023/02/01 03:43:30;;;;;;;12.40;3.22;;;5.50;99.90;;;;;;5067114;28;20419;-63
2023/02/01 03:46:01;;;;;;;11.45;3.10;;;5.60;99.90;;;;;;5066195;28;20428;-66
2023/02/01 03:48:29;;;;;;;11.98;3.50;;;5.50;99.90;;;;;;5064715;28;20509;-66
2023/02/01 03:50:59;;;;;;;9.20;2.78;;;5.50;99.90;;;;;;5065570;28;20413;-65
2023/02/01 03:53:29;;;;;;;11.57;3.65;;;5.50;99.90;;;;;;5063666;28;20413;-66
2023/02/01 03:55:57;;;;;;;13.95;3.50;;;5.40;99.90;;;;;;5067652;28;20427;-66
2023/02/01 03:58:24;;;;;;;11.15;3.15;;;5.40;99.90;;;;;;5067502;28;20412;-66
2023/02/01 04:00:53;;;;;;;17.33;4.20;;;5.40;99.90;;;;;;5063142;28;20421;-65
2023/02/01 04:03:21;;;;;;;19.65;4.28;;;5.40;99.90;;;;;;5063218;28;20411;-64
2023/02/01 04:05:48;;;;;;;17.23;4.28;;;5.40;99.90;;;;;;5064044;28;20471;-66
2023/02/01 04:11:07;;;;;;;15.02;4.65;;;5.40;99.90;;;;;;5122740;27;20361;-64
2023/02/01 04:13:34;;;;;;;14.97;3.47;;;5.50;99.90;;;;;;5120191;28;20416;-64
2023/02/01 04:16:01;;;;;;;13.35;3.80;;;5.50;99.90;;;;;;5123200;28;20433;-65
2023/02/01 04:18:28;;;;;;;14.35;3.78;;;5.60;99.90;;;;;;5122778;28;20494;-65
2023/02/01 04:20:55;;;;;;;16.40;4.50;;;5.60;99.90;;;;;;5121055;28;20405;-65
2023/02/01 04:23:21;;;;;;;14.77;4.60;;;5.60;99.90;;;;;;5123560;28;20465;-65
2023/02/01 04:25:48;;;;;;;13.43;3.92;;;5.60;99.90;;;;;;5122009;28;20409;-65
2023/02/01 04:28:16;;;;;;;13.17;4.40;;;5.60;99.90;;;;;;5118304;28;20413;-66
2023/02/01 04:30:43;;;;;;;14.25;3.97;;;5.60;99.90;;;;;;5117159;28;20920;-66
2023/02/01 04:33:13;;;;;;;11.70;4.07;;;5.60;99.90;;;;;;5119932;28;20503;-66
2023/02/01 04:35:40;;;;;;;13.18;4.15;;;5.60;99.90;;;;;;5119639;28;20861;-65
2023/02/01 04:38:07;;;;;;;18.48;4.32;;;5.60;99.90;;;;;;5118079;28;20423;-65
2023/02/01 04:40:34;;;;;;;16.50;4.30;;;5.60;99.90;;;;;;5115231;28;20402;-65
2023/02/01 04:43:03;;;;;;;16.60;4.80;;;5.60;99.90;;;;;;5120152;28;20472;-65
2023/02/01 04:45:31;;;;;;;15.30;4.43;;;5.60;99.90;;;;;;5118787;28;20734;-65
2023/02/01 04:47:58;;;;;;;11.88;3.97;;;5.60;99.90;;;;;;5115027;28;20411;-65
2023/02/01 04:50:25;;;;;;;11.00;3.50;;;5.70;99.90;;;;;;5116947;28;20421;-65
2023/02/01 04:52:52;;;;;;;13.65;3.65;;;5.70;99.90;;;;;;5116107;28;20409;-65
2023/02/01 04:55:18;;;;;;;11.63;3.95;;;5.70;99.90;;;;;;5116242;28;20416;-66
2023/02/01 04:57:45;;;;;;;13.60;4.03;;;5.60;99.90;;;;;;5118876;28;20469;-67
2023/02/01 05:00:13;;;;;;;12.90;3.90;;;5.40;99.90;;;;;;5119914;28;20499;-62
2023/02/01 05:02:41;;;;;;;13.05;4.22;;;5.20;99.90;;;;;;5117230;28;20405;-66
2023/02/01 05:05:08;;;;;;;16.33;4.80;;;5.00;99.90;;;;;;5114756;28;20519;-66
2023/02/01 05:07:35;;;;;;;17.48;5.00;;;4.80;99.90;;;;;;5116353;28;20416;-66
2023/02/01 05:10:02;;;;;;;15.32;4.78;;;4.70;99.90;;;;;;5122035;28;20423;-65
2023/02/01 05:15:13;;;;;;;16.60;4.60;;;4.60;99.90;;;;;;5129436;28;20894;-66
2023/02/01 05:17:44;;;;;;;12.93;4.38;;;4.50;99.90;;;;;;5130334;28;20396;-66
2023/02/01 05:20:12;;;;;;;15.25;4.75;;;4.50;99.90;;;;;;5130397;28;20408;-65
2023/02/01 05:22:38;;;;;;;17.73;4.78;;;4.50;99.90;;;;;;5116980;28;20408;-67
2023/02/01 05:25:06;;;;;;;17.07;4.83;;;4.40;99.90;;;;;;5124082;28;20419;-65
2023/02/01 05:27:33;;;;;;;13.45;4.45;;;4.40;99.90;;;;;;5116719;28;20783;-66
2023/02/01 05:29:59;;;;;;;16.35;4.65;;;4.40;99.90;;;;;;5116117;28;20428;-66
2023/02/01 05:32:26;;;;;;;15.13;4.80;;;4.30;99.90;;;;;;5115910;28;20408;-67
2023/02/01 05:34:54;;;;;;;16.50;5.00;;;4.30;99.90;;;;;;5115815;28;20427;-66
2023/02/01 05:37:21;;;;;;;17.60;4.87;;;4.30;99.90;;;;;;5114598;28;20409;-65
2023/02/01 05:39:48;;;;;;;16.20;4.72;;;4.30;99.90;;;;;;5119498;28;20418;-66
2023/02/01 05:42:15;;;;;;;16.85;4.72;;;4.30;99.90;;;;;;5120809;28;20428;-66
2023/02/01 05:44:42;;;;;;;18.02;5.00;;;4.30;99.90;;;;;;5104423;28;20535;-67
2023/02/01 05:47:09;;;;;;;14.55;4.40;;;4.30;99.90;;;;;;5105975;28;20496;-66
2023/02/01 05:49:35;;;;;;;17.23;5.65;;;4.30;99.90;;;;;;5126725;28;20439;-67
2023/02/01 05:52:04;;;;;;;14.68;5.05;;;4.30;99.90;;;;;;5122489;28;20943;-66
2023/02/01 05:54:31;;;;;;;14.02;5.28;;;4.40;99.90;;;;;;5127359;28;20444;-65
2023/02/01 05:56:58;;;;;;;13.65;4.75;;;4.40;99.90;;;;;;5113774;28;20497;-66
2023/02/01 05:59:24;;;;;;;14.85;4.22;;;4.50;99.90;;;;;;5129029;28;20388;-66
2023/02/01 06:01:51;;;;;;;18.63;5.33;;;4.50;99.90;;;;;;5122705;28;20414;-66
2023/02/01 06:04:18;;;;;;;12.80;4.45;;;4.60;99.90;;;;;;5113872;28;20497;-66
2023/02/01 06:06:45;;;;;;;14.88;4.93;;;4.60;99.90;;;;;;5111759;28;20410;-67
2023/02/01 06:09:13;;;;;;;13.13;4.20;;;4.60;99.90;;;;;;5111129;28;20413;-66
2023/02/01 06:11:41;;;;;;;13.05;3.88;;;4.60;99.90;;;;;;5111809;28;20410;-66
2023/02/01 06:14:08;;;;;;;13.65;4.35;;;4.60;99.90;;;;;;5119346;28;20405;-65
2023/02/01 06:16:37;;;;;;;12.20;4.20;;;4.60;99.90;;;;;;5130813;28;20465;-66
2023/02/01 06:19:04;;;;;;;15.32;4.38;;;4.70;99.90;;;;;;5128565;28;20408;-65
2023/02/01 06:21:30;;;;;;;11.73;4.30;;;4.70;99.90;;;;;;5104855;28;20402;-66
2023/02/01 06:23:58;;;;;;;15.20;4.13;;;4.70;99.90;;;;;;5110046;28;20410;-66
2023/02/01 06:26:28;;;;;;;11.37;4.17;;;4.80;99.90;;;;;;5110754;28;20410;-66
2023/02/01 06:28:56;;;;;;;12.00;4.40;;;4.80;99.90;;;;;;5109268;28;20481;-66
2023/02/01 06:31:25;;;;;;;11.55;4.00;;;4.80;99.90;;;;;;5109151;28;20492;-66
2023/02/01 06:33:53;;;;;;;9.80;3.40;;;4.80;99.90;;;;;;5107857;28;20410;-66
2023/02/01 06:36:20;;;;;;;13.60;3.92;;;4.80;99.90;;;;;;5109332;28;20390;-66
2023/02/01 06:38:48;;;;;;;11.05;3.60;;;4.80;99.90;;;;;;5115023;28;20552;-68
2023/02/01 06:41:15;;;;;;;14.43;3.95;;;4.80;99.90;;;;;;5119038;28;20419;-66
2023/02/01 06:43:43;;;;;;;10.20;3.90;;;4.70;99.90;;;;;;5117981;28;20427;-66
2023/02/01 06:46:13;;;;;;;7.30;3.40;;;4.70;99.90;;;;;;5109567;28;20402;-66
2023/02/01 06:48:40;;;;;;;9.20;3.35;;;4.70;99.90;;;;;;5109874;28;20406;-66
2023/02/01 06:51:07;;;;;;;10.90;3.47;;;4.70;99.90;;;;;;5109017;28;20429;-67
2023/02/01 06:53:34;;;;;;;9.48;3.50;;;4.60;99.90;;;;;;5108997;28;20413;-65
2023/02/01 06:56:02;;;;;;;11.10;3.97;;;4.60;99.90;;;;;;5103220;28;20508;-66
2023/02/01 06:58:30;;;;;;;10.85;3.88;;;4.60;99.90;;;;;;5101391;28;20432;-65
2023/02/01 07:01:04;;;;;;;13.20;4.40;;;4.60;99.90;;;;;;5104060;28;20497;-67
2023/02/01 07:03:31;;;;;;;12.95;5.05;;;4.50;99.90;;;;;;5102476;28;20432;-66
2023/02/01 07:05:59;;;;;;;12.50;4.00;;;4.60;99.90;;;;;;5104174;28;20413;-66
2023/02/01 07:08:26;;;;;;;11.15;3.47;;;4.60;99.90;;;;;;5104888;28;20432;-67
2023/02/01 07:10:53;;;;;;;9.13;3.35;;;4.60;99.90;;;;;;5104125;28;20456;-66
2023/02/01 07:13:20;;;;;;;9.57;3.25;;;4.70;99.90;;;;;;5102003;28;20774;-67
2023/02/01 07:15:47;;;;;;;8.90;3.60;;;4.70;99.90;;;;;;5102146;28;20429;-66
2023/02/01 07:18:15;;;;;;;12.13;3.78;;;4.60;99.90;;;;;;5101182;28;20410;-67
2023/02/01 07:20:42;;;;;;;9.75;3.10;;;4.70;99.90;;;;;;5099515;28;20441;-67
2023/02/01 07:23:11;;;;;;;15.02;4.18;;;4.70;99.90;;;;;;5100070;28;20410;-67
2023/02/01 07:25:37;;;;;;;14.05;4.25;;;4.70;99.90;;;;;;5100213;28;20417;-66
2023/02/01 07:28:04;;;;;;;12.65;4.22;;;4.70;99.90;;;;;;5101170;28;20421;-67
2023/02/01 07:30:31;;;;;;;15.60;4.10;;;4.70;99.90;;;;;;5099046;28;20433;-67
2023/02/01 07:33:00;;;;;;;11.85;4.43;;;4.70;99.90;;;;;;5102659;28;20920;-67
2023/02/01 07:35:29;;;;;;;13.90;4.35;;;4.80;99.90;;;;;;5105209;28;20459;-66
2023/02/01 07:37:55;;;;;;;14.43;4.33;;;4.80;99.90;;;;;;5104191;28;20409;-66
2023/02/01 07:40:28;;;;;;;11.82;3.80;;;4.90;99.90;;;;;;5104396;28;20488;-66
2023/02/01 07:42:55;;;;;;;9.27;3.80;;;4.90;99.90;;;;;;5104061;28;20486;-66
2023/02/01 07:45:22;;;;;;;13.30;3.80;;;5.00;99.90;;;;;;5103185;28;20462;-65
2023/02/01 07:47:49;;;;;;;11.60;4.00;;;5.00;99.90;;;;;;5103295;28;20774;-67
2023/02/01 07:50:16;;;;;;;13.83;3.80;;;5.10;99.90;;;;;;5101884;28;20421;-67
2023/02/01 07:52:44;;;;;;;11.73;3.53;;;5.10;99.90;;;;;;5101083;28;20414;-65
2023/02/01 07:55:11;;;;;;;12.88;3.78;;;5.10;99.90;;;;;;5102046;28;20838;-66
2023/02/01 07:57:37;;;;;;;18.55;5.38;;;5.20;99.90;;;;;;5100366;28;20421;-65
2023/02/01 08:02:49;;;;;;;12.77;3.87;;;5.30;99.90;;;;;;5099058;28;20397;-67
2023/02/01 08:05:16;;;;;;;14.98;3.58;;;5.30;99.90;;;;;;5097063;28;20445;-66
2023/02/01 08:07:44;;;;;;;9.30;3.33;;;5.40;99.90;;;;;;5096043;28;20777;-67
2023/02/01 08:10:12;;;;;;;13.48;3.50;;;5.50;99.90;;;;;;5093924;28;20452;-66
2023/02/01 08:12:39;;;;;;;12.70;3.50;;;5.50;99.90;;;;;;5094904;28;20537;-64
2023/02/01 08:15:07;;;;;;;10.18;3.58;;;5.50;99.90;;;;;;5095777;28;20414;-66
2023/02/01 08:17:34;;;;;;;15.15;3.92;;;5.60;99.90;;;;;;5094275;28;20421;-68
2023/02/01 08:20:01;;;;;;;12.50;3.50;;;5.60;99.90;;;;;;5094491;28;20406;-67
2023/02/01 08:22:32;;;;;;;12.52;3.28;;;5.60;99.90;;;;;;5093395;28;20510;-65
2023/02/01 08:25:01;;;;;;;14.05;3.33;;;5.60;99.90;;;;;;5094471;28;20414;-69
2023/02/01 08:27:28;;;;;;;9.18;3.08;;;5.70;99.90;;;;;;5095317;28;20414;-66
2023/02/01 08:29:54;;;;;;;12.15;2.92;;;5.70;99.90;;;;;;5094166;28;20410;-67
2023/02/01 08:32:21;;;;;;;10.10;3.22;;;5.70;99.90;;;;;;5094553;28;20430;-66
2023/02/01 08:34:48;;;;;;;9.63;3.50;;;5.80;99.90;;;;;;5094230;28;20456;-67
2023/02/01 08:37:15;;;;;;;12.40;3.05;;;5.80;99.90;;;;;;5093801;28;20436;-67
2023/02/01 08:39:43;;;;;;;12.18;3.47;;;5.80;99.90;;;;;;5093837;28;20484;-66
2023/02/01 08:44:55;;;;;;;19.08;3.60;;;5.80;99.90;;;;;;5096802;28;20547;-67
2023/02/01 08:47:23;;;;;;;15.43;3.40;;;5.90;99.90;;;;;;5098934;28;20414;-67
2023/02/01 08:49:49;;;;;;;16.45;3.70;;;5.90;99.90;;;;;;5097941;28;20433;-67
2023/02/01 08:52:16;;;;;;;7.47;2.95;;;5.90;99.90;;;;;;5094803;28;20927;-66
2023/02/01 08:54:43;;;;;;;11.48;3.17;;;5.90;99.90;;;;;;5094871;28;20846;-66
2023/02/01 08:57:11;;;;;;;14.30;3.88;;;6.00;99.90;;;;;;5097063;28;20418;-66
2023/02/01 08:59:38;;;;;;;12.60;3.47;;;6.00;99.90;;;;;;5100271;28;20413;-66
2023/02/01 09:02:05;;;;;;;12.18;3.00;;;6.10;99.90;;;;;;5099279;28;20410;-67
2023/02/01 09:04:32;;;;;;;14.75;3.72;;;6.10;99.90;;;;;;5100713;28;20754;-67
2023/02/01 09:06:59;;;;;;;12.40;3.70;;;6.10;99.90;;;;;;5105398;28;20555;-67
2023/02/01 09:09:28;;;;;;;11.15;3.13;;;6.20;99.90;;;;;;5099709;28;20410;-66
2023/02/01 09:11:55;;;;;;;10.20;2.92;;;6.20;99.90;;;;;;5099246;28;20422;-67
2023/02/01 09:14:23;;;;;;;9.90;2.90;;;6.30;99.90;;;;;;5102530;28;20417;-67
2023/02/01 09:16:50;;;;;;;14.20;3.20;;;6.40;99.90;;;;;;5103473;28;20504;-66
2023/02/01 09:19:17;;;;;;;13.10;4.05;;;6.50;99.90;;;;;;5100768;28;20406;-66
2023/02/01 09:21:43;;;;;;;8.85;2.70;;;6.60;99.90;;;;;;5098784;28;20417;-67
2023/02/01 09:24:11;;;;;;;10.45;3.08;;;6.60;99.90;;;;;;5099846;28;20424;-67
2023/02/01 09:26:38;;;;;;;13.18;3.08;;;6.60;99.90;;;;;;5105981;28;20420;-67
2023/02/01 09:29:10;;;;;;;9.52;2.85;;;6.70;99.90;;;;;;5102098;28;20409;-67
2023/02/01 09:31:39;;;;;;;13.85;3.50;;;6.70;99.90;;;;;;5104621;28;20425;-67
2023/02/01 09:34:07;;;;;;;10.25;3.15;;;6.70;99.90;;;;;;5104864;28;20422;-66
2023/02/01 09:36:35;;;;;;;7.65;2.80;;;6.70;99.90;;;;;;5105734;28;20417;-67
2023/02/01 09:39:02;;;;;;;12.05;2.80;;;6.70;99.90;;;;;;5105372;28;20406;-67
2023/02/01 09:41:41;;;;;;;9.35;2.85;;;6.70;99.90;;;;;;5102344;28;20410;-67
2023/02/01 09:44:18;;;;;;;8.02;3.10;;;6.80;99.90;;;;;;5099307;28;20420;-67
2023/02/01 09:46:46;;;;;;;10.35;3.90;;;6.80;99.90;;;;;;5097662;28;20406;-67
2023/02/01 09:49:19;;;;;;;9.93;2.45;;;6.80;99.90;;;;;;5098939;28;20459;-67
2023/02/01 09:51:49;;;;;;;13.32;3.35;;;6.80;99.90;;;;;;5099503;28;20430;-67
2023/02/01 09:54:19;;;;;;;10.35;3.05;;;6.90;99.90;;;;;;5097546;28;20429;-68
2023/02/01 09:56:50;;;;;;;12.63;3.30;;;6.90;99.90;;;;;;5097474;28;20410;-66
2023/02/01 09:59:31;;;;;;;10.60;3.15;;;6.90;99.90;;;;;;5097520;28;20410;-67
2023/02/01 10:02:00;;;;;;;10.52;3.30;;;6.90;99.90;;;;;;5098118;28;20410;-66
2023/02/01 10:04:27;;;;;;;11.52;3.28;;;6.90;99.90;;;;;;5097990;28;20563;-67
2023/02/01 10:07:03;;;;;;;10.07;3.57;;;6.90;99.90;;;;;;5098961;28;20496;-67
2023/02/01 10:09:51;;;;;;;10.10;3.30;;;6.90;99.90;;;;;;5098751;28;20757;-68
2023/02/01 10:12:44;;;;;;;7.28;2.85;;;6.90;99.90;;;;;;5097665;28;20422;-66
2023/02/01 10:15:23;;;;;;;10.88;2.80;;;7.00;99.90;;;;;;5096958;28;20475;-65
2023/02/01 10:18:03;;;;;;;11.10;2.78;;;7.00;99.90;;;;;;5097012;28;20413;-67
2023/02/01 10:20:39;;;;;;;12.18;3.22;;;7.10;99.90;;;;;;5097105;28;20406;-67
2023/02/01 10:23:18;;;;;;;12.38;3.55;;;7.10;99.90;;;;;;5097406;28;20612;-65
2023/02/01 10:25:54;;;;;;;11.75;3.42;;;7.10;99.90;;;;;;5096229;28;20551;-67
2023/02/01 10:28:23;;;;;;;8.40;2.40;;;7.20;99.90;;;;;;5097346;28;20445;-68
2023/02/01 10:30:55;;;;;;;12.73;3.35;;;7.20;99.90;;;;;;5095489;28;20436;-68
2023/02/01 10:33:27;;;;;;;8.75;2.90;;;7.20;99.90;;;;;;5096642;28;20453;-65
2023/02/01 10:36:00;;;;;;;11.83;3.43;;;7.30;99.90;;;;;;5096640;28;20418;-67
2023/02/01 10:38:29;;;;;;;11.43;3.08;;;7.30;99.90;;;;;;5096253;28;20410;-66
2023/02/01 10:40:59;;;;;;;10.38;4.00;;;7.40;99.90;;;;;;5096201;28;20414;-66
2023/02/01 10:43:26;;;;;;;10.02;2.92;;;7.40;99.90;;;;;;5098053;28;20757;-67
2023/02/01 10:45:53;;;;;;;12.43;3.17;;;7.40;99.90;;;;;;5098942;28;20481;-67
2023/02/01 10:48:20;;;;;;;9.10;3.35;;;7.40;99.90;;;;;;5098420;28;20412;-66
2023/02/01 10:50:55;;;;;;;9.07;3.30;;;7.40;99.90;;;;;;5097438;28;20414;-67
2023/02/01 10:53:29;;;;;;;8.80;2.90;;;7.40;99.90;;;;;;5097391;28;20981;-66
2023/02/01 10:55:56;;;;;;;11.37;3.20;;;7.40;99.90;;;;;;5098949;28;20417;-67
2023/02/01 10:58:31;;;;;;;9.45;2.78;;;7.30;99.90;;;;;;5098810;28;20834;-66
2023/02/01 11:01:02;;;;;;;9.40;3.17;;;7.30;99.90;;;;;;5099021;28;20405;-66
2023/02/01 11:03:35;;;;;;;15.73;3.43;;;7.30;99.90;;;;;;5097954;28;20406;-67
2023/02/01 11:06:09;;;;;;;12.52;2.80;;;7.30;99.90;;;;;;5098288;28;20493;-67
2023/02/01 11:08:44;;;;;;;10.15;2.80;;;7.20;99.90;;;;;;5098453;28;20410;-65
2023/02/01 11:11:11;;;;;;;9.40;2.65;;;7.20;99.90;;;;;;5098504;28;20840;-65
2023/02/01 11:13:40;;;;;;;12.25;2.88;;;7.20;99.90;;;;;;5099679;28;20412;-66
2023/02/01 11:16:11;;;;;;;9.85;2.90;;;7.20;99.90;;;;;;5100216;28;20416;-65
2023/02/01 11:18:39;;;;;;;7.35;2.63;;;7.30;99.90;;;;;;5100091;28;20469;-66
2023/02/01 11:21:10;;;;;;;9.93;2.60;;;7.30;99.90;;;;;;5100630;28;20414;-65
2023/02/01 11:23:43;;;;;;;10.13;2.90;;;7.30;99.90;;;;;;5099146;28;20413;-66
2023/02/01 11:26:14;;;;;;;8.10;2.63;;;7.30;99.90;;;;;;5098440;28;20907;-67
2023/02/01 11:28:50;;;;;;;11.15;2.97;;;7.30;99.90;;;;;;5101825;28;20410;-67
2023/02/01 11:31:17;;;;;;;8.77;3.07;;;7.30;99.90;;;;;;5100754;28;20418;-66
2023/02/01 11:33:50;;;;;;;9.57;3.00;;;7.30;99.90;;;;;;5100940;28;20405;-66
2023/02/01 11:36:21;;;;;;;10.70;3.00;;;7.30;99.90;;;;;;5100524;28;20410;-68
2023/02/01 11:38:54;;;;;;;8.77;2.90;;;7.30;99.90;;;;;;5100025;28;20488;-67
2023/02/01 11:41:27;;;;;;;11.73;3.30;;;7.40;99.90;;;;;;5100768;28;20495;-67
2023/02/01 11:43:57;;;;;;;9.85;2.88;;;7.40;99.90;;;;;;5098867;28;20474;-66
2023/02/01 11:46:29;;;;;;;10.73;2.97;;;7.60;99.80;;;;;;5099154;28;20569;-68
2023/02/01 11:48:57;;;;;;;12.63;3.38;;;7.70;99.60;;;;;;5097957;28;20414;-67
2023/02/01 11:51:45;;;;;;;8.20;2.70;;;7.70;99.90;;;;;;5098437;28;20436;-66
2023/02/01 11:54:25;;;;;;;8.68;2.70;;;7.80;99.90;;;;;;5098556;28;20430;-66
2023/02/01 11:57:05;;;;;;;11.73;3.40;;;7.80;99.50;;;;;;5097309;28;20924;-66
2023/02/01 11:59:55;;;;;;;10.37;3.20;;;7.70;99.60;;;;;;5097626;28;20436;-66
2023/02/01 12:02:51;;;;;;;10.50;3.40;;;7.90;99.50;;;;;;5098307;28;20412;-64
2023/02/01 12:05:37;;;;;;;11.73;3.00;;;7.90;98.40;;;;;;5098871;28;20431;-66
2023/02/01 12:08:30;;;;;;;13.38;3.45;;;8.00;97.80;;;;;;5099049;28;20901;-67
2023/02/01 12:11:20;;;;;;;11.33;3.13;;;8.10;97.80;;;;;;5095946;28;20414;-67
2023/02/01 12:13:54;;;;;;;7.85;3.10;;;8.30;97.70;;;;;;5095360;28;20477;-67
2023/02/01 12:16:32;;;;;;;12.40;3.10;;;8.40;96.80;;;;;;5095480;28;20851;-66
2023/02/01 12:19:20;;;;;;;9.70;3.25;;;8.40;95.90;;;;;;5096520;28;20441;-67
2023/02/01 12:22:24;;;;;;;11.73;3.08;;;8.40;95.90;;;;;;5096443;28;20844;-66
2023/02/01 12:25:15;;;;;;;10.35;2.95;;;8.20;96.10;;;;;;5032929;28;20422;-65
2023/02/01 12:28:03;;;;;;;7.85;3.03;;;8.10;96.70;;;;;;5090333;28;20422;-67
2023/02/01 12:30:51;;;;;;;8.32;3.17;;;7.90;98.00;;;;;;5095482;28;20412;-66
2023/02/01 12:33:29;;;;;;;9.90;3.00;;;7.70;99.90;;;;;;5100924;28;20782;-66
2023/02/01 12:36:10;;;;;;;11.07;3.17;;;7.40;99.90;;;;;;5100343;28;20478;-67
2023/02/01 12:38:46;;;;;;;12.52;4.35;;;7.20;99.90;;;;;;5101468;28;20424;-66
2023/02/01 12:41:53;;;;;;;7.17;2.90;;;7.00;99.90;;;;;;5101595;28;20417;-66
2023/02/01 12:44:32;;;;;;;8.90;3.10;;;6.80;99.90;;;;;;5101148;28;20417;-68
2023/02/01 12:47:04;;;;;;;7.80;2.65;;;6.60;99.90;;;;;;5100608;28;20425;-67
2023/02/01 12:49:41;;;;;;;9.15;4.13;;;6.50;99.90;;;;;;5100338;28;20406;-67
2023/02/01 12:52:14;;;;;;;9.10;3.17;;;6.30;99.90;;;;;;5101441;28;20905;-67
2023/02/01 12:54:47;;;;;;;12.25;3.25;;;6.10;99.90;;;;;;5101877;28;20878;-67
2023/02/01 12:57:18;;;;;;;7.50;3.03;;;6.10;99.90;;;;;;5103879;28;20410;-67
2023/02/01 12:59:50;;;;;;;8.35;3.00;;;6.10;99.90;;;;;;5105332;28;20405;-68
2023/02/01 13:02:23;;;;;;;7.47;2.70;;;6.10;99.90;;;;;;5104697;28;20489;-67
2023/02/01 13:05:01;;;;;;;5.80;2.13;;;6.00;99.90;;;;;;5101194;28;20420;-67
2023/02/01 13:07:34;;;;;;;7.25;2.70;;;5.90;99.90;;;;;;5100349;28;20424;-67
2023/02/01 13:10:12;;;;;;;7.80;2.80;;;5.90;99.90;;;;;;5099632;28;20417;-67
2023/02/01 13:12:50;;;;;;;4.80;2.72;;;5.80;99.90;;;;;;5099563;28;20727;-70
2023/02/01 13:15:22;;;;;;;6.80;2.30;;;5.70;99.90;;;;;;5099009;28;20792;-68
2023/02/01 13:17:50;;;;;;;6.00;3.00;;;5.60;99.90;;;;;;5099363;28;20420;-66
2023/02/01 13:20:22;;;;;;;5.45;2.35;;;5.60;99.90;;;;;;5098429;28;20414;-67
2023/02/01 13:22:54;;;;;;;5.65;2.00;;;5.50;99.90;;;;;;5100317;28;20406;-67
2023/02/01 13:25:30;;;;;;;5.35;2.30;;;5.40;99.90;;;;;;5101569;28;20421;-65
2023/02/01 13:28:07;;;;;;;6.50;2.40;;;5.30;99.90;;;;;;5100965;28;20413;-66
2023/02/01 13:30:53;;;;;;;5.80;2.25;;;5.30;99.90;;;;;;5100426;28;20402;-66
2023/02/01 13:33:44;;;;;;;12.20;2.70;;;5.20;99.90;;;;;;5100976;28;20422;-66
2023/02/01 13:36:34;;;;;;;2.70;1.30;;;5.10;99.90;;;;;;5100815;28;20409;-65
2023/02/01 13:39:29;;;;;;;2.80;0.80;;;4.30;99.90;;;;;;5102452;28;20467;-66